Time;durP1;ratioP1;P1;durP2;ratioP2;P2;SDS_P1;SDS_P2;PMS_P1;PMS_P2;Temp;Humidity;BMP_temperature;BMP_pressure;BME280_temperature;BME280_humidity;BME280_pressure;Samples;Min_cycle;Max_cycle;Signal;HPM_P1;HPM_P2
2023/04/03 00:02:24;;;;;;;4.50;4.10;;;;;;;8.09;100.00;96967.56;5041954;28;20298;-56
2023/04/03 00:04:55;;;;;;;4.50;4.20;;;;;;;8.04;100.00;96968.88;5042815;28;20210;-57
2023/04/03 00:07:21;;;;;;;4.73;4.43;;;;;;;8.01;100.00;96977.84;5042332;28;20261;-57
2023/04/03 00:09:48;;;;;;;5.33;4.87;;;;;;;8.14;100.00;96969.84;5042017;28;20206;-58
2023/04/03 00:12:15;;;;;;;5.37;4.97;;;;;;;7.88;100.00;96975.34;5041627;28;20218;-57
2023/04/03 00:14:42;;;;;;;6.23;5.40;;;;;;;7.83;100.00;96974.84;5041784;28;20610;-57
2023/04/03 00:17:08;;;;;;;5.70;5.30;;;;;;;7.79;100.00;96976.06;5042185;28;20200;-57
2023/04/03 00:19:35;;;;;;;5.20;4.80;;;;;;;7.68;100.00;96983.94;5041225;28;20292;-57
2023/04/03 00:22:03;;;;;;;5.70;5.30;;;;;;;7.61;100.00;96977.44;5041869;28;20627;-57
2023/04/03 00:24:29;;;;;;;5.17;4.77;;;;;;;7.60;100.00;96986.28;5041684;28;20632;-57
2023/04/03 00:26:56;;;;;;;4.90;4.50;;;;;;;7.49;100.00;96981.00;5043424;28;20199;-58
2023/04/03 00:29:22;;;;;;;5.00;4.60;;;;;;;7.34;100.00;96996.16;5042071;28;20218;-57
2023/04/03 00:31:49;;;;;;;5.10;4.70;;;;;;;7.21;100.00;96990.13;5041901;28;20213;-56
2023/04/03 00:34:15;;;;;;;4.17;3.87;;;;;;;7.24;100.00;96989.91;5043764;28;20986;-57
2023/04/03 00:36:42;;;;;;;3.60;3.40;;;;;;;7.22;100.00;96998.88;5045528;28;20211;-57
2023/04/03 00:39:10;;;;;;;3.97;3.60;;;;;;;7.19;100.00;96991.19;5045560;28;20222;-57
2023/04/03 00:41:36;;;;;;;3.57;3.37;;;;;;;7.22;100.00;96985.72;5045366;28;20207;-57
2023/04/03 00:44:19;;;;;;;4.00;3.70;;;;;;;7.19;100.00;96983.31;5045169;28;20224;-57
2023/04/03 00:46:46;;;;;;;4.03;3.73;;;;;;;7.21;100.00;96989.28;5045511;28;20279;-57
2023/04/03 00:49:14;;;;;;;4.37;4.07;;;;;;;7.21;100.00;96979.59;5044484;28;20199;-57
2023/04/03 00:51:40;;;;;;;4.83;4.53;;;;;;;7.16;100.00;96983.50;5045320;28;20198;-57
2023/04/03 00:54:07;;;;;;;4.43;4.13;;;;;;;7.13;100.00;96981.13;5045797;28;20218;-58
2023/04/03 00:56:37;;;;;;;4.30;4.00;;;;;;;7.04;100.00;96990.53;5044562;28;20587;-57
2023/04/03 00:59:05;;;;;;;4.60;4.30;;;;;;;7.03;100.00;96993.28;5045560;28;20207;-57
2023/04/03 01:01:32;;;;;;;4.23;3.93;;;;;;;6.98;100.00;96985.72;5044686;28;20731;-55
2023/04/03 01:03:59;;;;;;;4.20;3.80;;;;;;;6.91;100.00;96985.31;5044345;28;20256;-57
2023/04/03 01:06:32;;;;;;;4.30;3.93;;;;;;;6.94;100.00;96982.47;5045672;28;20265;-57
2023/04/03 01:08:59;;;;;;;4.03;3.73;;;;;;;6.93;100.00;96982.59;5044456;28;20203;-57
2023/04/03 01:11:34;;;;;;;4.33;4.03;;;;;;;6.93;100.00;96985.22;5045218;28;20232;-56
2023/04/03 01:14:02;;;;;;;6.83;4.70;;;;;;;6.92;100.00;96999.31;5044597;28;20213;-57
2023/04/03 01:16:31;;;;;;;5.10;4.70;;;;;;;6.83;100.00;97000.84;5045516;28;20300;-56
2023/04/03 01:18:58;;;;;;;5.07;4.67;;;;;;;6.81;100.00;96996.63;5043830;28;20535;-56
2023/04/03 01:21:47;;;;;;;4.97;4.57;;;;;;;6.82;100.00;97006.19;5044503;28;20211;-57
2023/04/03 01:24:24;;;;;;;4.83;4.33;;;;;;;6.83;100.00;97005.25;5045159;28;20216;-57
2023/04/03 01:26:51;;;;;;;4.97;4.63;;;;;;;6.83;100.00;97008.72;5044957;28;20268;-58
2023/04/03 01:29:19;;;;;;;4.67;4.37;;;;;;;6.80;100.00;97008.09;5044814;28;20233;-58
2023/04/03 01:31:52;;;;;;;4.57;4.27;;;;;;;6.66;100.00;97013.53;5044183;28;20226;-57
2023/04/03 01:34:20;;;;;;;4.67;4.37;;;;;;;6.69;100.00;97014.13;5044215;28;20196;-57
2023/04/03 01:36:46;;;;;;;5.33;4.93;;;;;;;6.53;100.00;97016.16;5044121;28;20234;-57
2023/04/03 01:39:13;;;;;;;4.70;4.40;;;;;;;6.52;100.00;97016.28;5043861;28;20619;-58
2023/04/03 01:41:40;;;;;;;4.50;4.20;;;;;;;6.54;100.00;97015.22;5044018;28;20211;-57
2023/04/03 01:44:07;;;;;;;5.40;5.00;;;;;;;6.35;100.00;97018.31;5043878;28;20207;-56
2023/04/03 01:46:33;;;;;;;4.77;4.47;;;;;;;6.35;100.00;97022.72;5043652;28;20639;-58
2023/04/03 01:49:02;;;;;;;4.77;4.40;;;;;;;6.34;100.00;97019.25;5043818;28;20216;-57
2023/04/03 01:51:29;;;;;;;4.80;4.40;;;;;;;6.33;100.00;97019.38;5044308;28;20211;-57
2023/04/03 01:53:56;;;;;;;4.90;4.60;;;;;;;6.23;100.00;97020.97;5043965;28;20637;-57
2023/04/03 01:56:23;;;;;;;5.17;4.77;;;;;;;6.29;100.00;97012.66;5043396;28;20915;-58
2023/04/03 01:58:49;;;;;;;4.80;4.40;;;;;;;6.39;100.00;97022.41;5042529;28;20200;-56
2023/04/03 02:01:16;;;;;;;4.97;4.67;;;;;;;6.34;100.00;97023.69;5044299;28;20216;-57
2023/04/03 02:03:42;;;;;;;5.43;5.03;;;;;;;6.28;100.00;97029.34;5043463;28;20662;-58
2023/04/03 02:06:10;;;;;;;4.97;4.57;;;;;;;6.39;100.00;97021.56;5043520;28;20223;-57
2023/04/03 02:08:37;;;;;;;5.87;5.37;;;;;;;6.16;100.00;97032.84;5043405;28;20206;-56
2023/04/03 02:11:03;;;;;;;6.00;5.50;;;;;;;6.12;100.00;97031.38;5043361;28;20195;-57
2023/04/03 02:13:30;;;;;;;5.27;4.87;;;;;;;6.01;100.00;97026.88;5043763;28;20203;-57
2023/04/03 02:15:56;;;;;;;5.27;4.87;;;;;;;6.07;100.00;97028.22;5042986;28;20243;-57
2023/04/03 02:18:22;;;;;;;5.63;5.13;;;;;;;5.94;100.00;97034.31;5043619;28;20207;-57
2023/04/03 02:20:49;;;;;;;5.60;5.13;;;;;;;5.80;100.00;97029.16;5042889;28;20232;-57
2023/04/03 02:23:18;;;;;;;6.00;5.60;;;;;;;5.75;100.00;97031.22;5043692;28;20208;-56
2023/04/03 02:25:45;;;;;;;6.10;5.60;;;;;;;5.73;100.00;97032.28;5042950;28;20202;-56
2023/04/03 02:28:11;;;;;;;6.77;6.17;;;;;;;5.60;100.00;97029.63;5044937;28;20204;-57
2023/04/03 02:30:38;;;;;;;5.90;5.40;;;;;;;5.58;100.00;97039.41;5044108;28;20204;-56
2023/04/03 02:33:04;;;;;;;6.03;5.53;;;;;;;5.63;100.00;97037.31;5042847;28;20478;-57
2023/04/03 02:35:31;;;;;;;6.20;5.70;;;;;;;5.65;100.00;97037.22;5042773;28;20227;-57
2023/04/03 02:37:57;;;;;;;6.00;5.43;;;;;;;5.77;100.00;97045.09;5043009;28;20242;-56
2023/04/03 02:40:25;;;;;;;7.03;6.40;;;;;;;5.84;100.00;97041.13;5042974;28;20508;-57
2023/04/03 02:42:51;;;;;;;6.10;5.60;;;;;;;5.83;100.00;97039.44;5044466;28;20211;-58
2023/04/03 02:45:18;;;;;;;5.60;5.20;;;;;;;5.82;100.00;97043.00;5044898;28;20212;-56
2023/04/03 02:47:44;;;;;;;6.10;5.60;;;;;;;5.79;100.00;97037.97;5045457;28;20226;-57
2023/04/03 02:50:11;;;;;;;5.23;4.83;;;;;;;5.78;100.00;97033.66;5045612;28;20207;-57
2023/04/03 02:52:38;;;;;;;5.73;5.33;;;;;;;5.73;100.00;97033.13;5043895;28;20207;-57
2023/04/03 02:55:06;;;;;;;6.30;5.00;;;;;;;5.69;100.00;97034.28;5042903;28;20211;-58
2023/04/03 02:57:35;;;;;;;5.43;5.03;;;;;;;5.81;100.00;97036.06;5043527;28;20215;-58
2023/04/03 03:00:02;;;;;;;4.87;4.57;;;;;;;5.74;100.00;97041.84;5044001;28;20200;-57
2023/04/03 03:02:28;;;;;;;5.20;4.80;;;;;;;5.70;100.00;97038.59;5044938;28;20207;-57
2023/04/03 03:04:55;;;;;;;4.57;4.27;;;;;;;5.54;100.00;97037.94;5042219;28;20632;-57
2023/04/03 03:07:21;;;;;;;4.10;3.80;;;;;;;5.41;100.00;97037.06;5042504;28;20211;-57
2023/04/03 03:09:48;;;;;;;4.77;4.47;;;;;;;5.47;100.00;97031.41;5042451;28;20218;-56
2023/04/03 03:12:15;;;;;;;3.77;3.47;;;;;;;5.50;100.00;97032.03;5042333;28;20211;-57
2023/04/03 03:14:43;;;;;;;4.40;4.10;;;;;;;5.45;100.00;97025.44;5042024;28;20200;-56
2023/04/03 03:17:09;;;;;;;4.30;4.00;;;;;;;5.42;100.00;97039.56;5042150;28;20242;-57
2023/04/03 03:19:35;;;;;;;4.60;4.20;;;;;;;5.36;100.00;97039.16;5042620;28;20235;-57
2023/04/03 03:22:02;;;;;;;3.57;3.37;;;;;;;5.33;100.00;97023.63;5044642;28;20548;-57
2023/04/03 03:24:28;;;;;;;4.07;3.70;;;;;;;5.29;100.00;97027.38;5042696;28;20200;-56
2023/04/03 03:26:55;;;;;;;3.77;3.57;;;;;;;5.39;100.00;97034.53;5041858;28;20206;-56
2023/04/03 03:29:21;;;;;;;4.30;4.00;;;;;;;5.32;100.00;97038.50;5042287;28;20207;-57
2023/04/03 03:31:49;;;;;;;4.43;4.13;;;;;;;5.21;100.00;97040.19;5042030;28;20215;-57
2023/04/03 03:34:16;;;;;;;4.50;4.20;;;;;;;5.21;100.00;97040.19;5041611;28;20294;-57
2023/04/03 03:36:42;;;;;;;4.50;4.20;;;;;;;5.15;100.00;97043.19;5041918;28;20238;-57
2023/04/03 03:39:09;;;;;;;4.60;4.30;;;;;;;5.09;100.00;97043.59;5040640;28;20733;-57
2023/04/03 03:41:35;;;;;;;4.43;3.97;;;;;;;5.21;100.00;97048.84;5042962;28;20222;-57
2023/04/03 03:44:02;;;;;;;4.53;4.23;;;;;;;5.23;100.00;97047.00;5042593;28;20544;-56
2023/04/03 03:46:29;;;;;;;5.10;4.70;;;;;;;5.20;100.00;97047.19;5042091;28;20203;-56
2023/04/03 03:48:57;;;;;;;4.57;4.23;;;;;;;5.18;100.00;97045.59;5041363;28;20203;-56
2023/04/03 03:51:23;;;;;;;4.50;4.20;;;;;;;5.17;100.00;97059.66;5042193;28;20261;-57
2023/04/03 03:53:50;;;;;;;4.70;4.40;;;;;;;5.03;100.00;97053.50;5042828;28;20645;-57
2023/04/03 03:56:17;;;;;;;5.17;4.80;;;;;;;4.97;100.00;97056.53;5042206;28;20241;-55
2023/04/03 03:58:43;;;;;;;5.10;4.70;;;;;;;4.96;100.00;97062.72;5041812;28;20218;-57
2023/04/03 04:01:10;;;;;;;4.90;4.50;;;;;;;4.95;100.00;97066.28;5042703;28;20207;-56
2023/04/03 04:03:37;;;;;;;5.70;5.20;;;;;;;4.91;100.00;97064.81;5041376;28;20204;-55
2023/04/03 04:06:05;;;;;;;5.30;4.90;;;;;;;4.89;100.00;97077.16;5042343;28;20297;-57
2023/04/03 04:08:31;;;;;;;5.90;5.40;;;;;;;4.85;100.00;97073.03;5043472;28;20195;-56
2023/04/03 04:10:57;;;;;;;5.70;5.13;;;;;;;4.79;100.00;97070.81;5046311;28;20265;-57
2023/04/03 04:13:24;;;;;;;6.03;5.57;;;;;;;4.77;100.00;97067.47;5045905;28;20207;-58
2023/04/03 04:15:51;;;;;;;5.30;4.90;;;;;;;4.63;100.00;97070.13;5045957;28;20219;-57
2023/04/03 04:18:17;;;;;;;5.80;5.40;;;;;;;4.66;100.00;97069.06;5045400;28;20579;-56
2023/04/03 04:20:45;;;;;;;6.17;5.67;;;;;;;4.56;100.00;97079.28;5045912;28;20238;-57
2023/04/03 04:23:13;;;;;;;5.30;4.90;;;;;;;4.55;100.00;97077.59;5045602;28;20207;-57
2023/04/03 04:25:40;;;;;;;6.10;5.60;;;;;;;4.60;100.00;97080.78;5046589;28;20208;-56
2023/04/03 04:28:09;;;;;;;5.73;5.33;;;;;;;4.65;100.00;97070.84;5045689;28;20214;-57
2023/04/03 04:30:38;;;;;;;5.93;5.43;;;;;;;4.69;100.00;97077.56;5045486;28;20632;-56
2023/04/03 04:33:05;;;;;;;5.70;5.30;;;;;;;4.68;100.00;97083.75;5044728;28;20220;-57
2023/04/03 04:35:31;;;;;;;6.33;5.20;;;;;;;4.70;100.00;97081.88;5045323;28;20290;-57
2023/04/03 04:37:58;;;;;;;6.10;5.60;;;;;;;4.63;99.80;97085.84;5044174;28;20640;-56
2023/04/03 04:40:26;;;;;;;5.53;5.13;;;;;;;4.68;99.57;97088.97;5046322;28;20274;-57
2023/04/03 04:42:55;;;;;;;5.50;5.10;;;;;;;4.70;99.75;97084.50;5045151;28;20529;-57
2023/04/03 04:45:22;;;;;;;5.90;5.40;;;;;;;4.78;100.00;97084.03;5045667;28;20214;-58
2023/04/03 04:47:51;;;;;;;5.37;4.97;;;;;;;4.77;99.09;97083.19;5044906;28;20218;-56
2023/04/03 04:50:18;;;;;;;6.20;5.70;;;;;;;4.81;99.44;97078.59;5044752;28;20513;-57
2023/04/03 04:52:44;;;;;;;5.97;5.47;;;;;;;4.68;98.72;97078.50;5045341;28;20199;-57
2023/04/03 04:55:11;;;;;;;5.77;5.37;;;;;;;4.69;98.68;97085.44;5045839;28;20211;-57
2023/04/03 04:57:38;;;;;;;5.80;5.30;;;;;;;4.71;97.16;97078.31;5045733;28;20227;-56
2023/04/03 05:00:06;;;;;;;5.80;5.40;;;;;;;4.60;97.24;97086.03;5044879;28;20211;-57
2023/04/03 05:02:33;;;;;;;6.20;5.60;;;;;;;4.71;97.33;97082.72;5045425;28;20203;-57
2023/04/03 05:04:59;;;;;;;5.60;5.20;;;;;;;4.62;96.10;97094.63;5045206;28;20293;-55
2023/04/03 05:07:26;;;;;;;5.73;5.23;;;;;;;4.60;96.25;97099.13;5045664;28;20199;-56
2023/04/03 05:09:52;;;;;;;6.47;5.17;;;;;;;4.57;96.31;97101.91;5044832;28;20204;-57
2023/04/03 05:12:19;;;;;;;5.60;5.20;;;;;;;4.60;95.25;97106.97;5045978;28;20218;-57
2023/04/03 05:14:47;;;;;;;6.03;5.43;;;;;;;4.52;97.25;97106.59;5044703;28;20234;-57
2023/04/03 05:17:13;;;;;;;6.10;5.60;;;;;;;4.37;96.57;97094.44;5044415;28;20232;-57
2023/04/03 05:19:39;;;;;;;5.50;5.07;;;;;;;4.46;97.59;97096.53;5043436;28;20290;-56
2023/04/03 05:22:06;;;;;;;6.53;5.87;;;;;;;4.38;96.39;97097.00;5044248;28;20199;-56
2023/04/03 05:24:32;;;;;;;5.93;5.20;;;;;;;4.41;96.73;97106.41;5044612;28;20200;-58
2023/04/03 05:26:59;;;;;;;6.20;5.70;;;;;;;4.39;96.96;97103.88;5044384;28;20536;-56
2023/04/03 05:29:26;;;;;;;6.00;5.50;;;;;;;4.45;97.63;97105.31;5045275;28;20211;-57
2023/04/03 05:31:54;;;;;;;5.33;4.83;;;;;;;4.43;95.92;97112.38;5044875;28;20591;-57
2023/04/03 05:34:20;;;;;;;5.57;5.07;;;;;;;4.36;94.79;97108.47;5044477;28;20698;-57
2023/04/03 05:36:48;;;;;;;5.13;4.43;;;;;;;4.48;92.86;97112.97;5044340;28;20219;-56
2023/04/03 05:39:17;;;;;;;5.30;4.80;;;;;;;4.34;90.42;97121.66;5043859;28;20203;-56
2023/04/03 05:41:43;;;;;;;4.73;4.43;;;;;;;4.32;88.41;97118.28;5042984;28;20208;-56
2023/04/03 05:44:10;;;;;;;4.67;4.27;;;;;;;4.40;89.13;97121.28;5045693;28;20329;-56
2023/04/03 05:46:36;;;;;;;4.87;4.57;;;;;;;4.47;89.21;97117.34;5044262;28;20195;-55
2023/04/03 05:49:04;;;;;;;4.77;4.40;;;;;;;4.45;87.31;97132.34;5044266;28;20204;-57
2023/04/03 05:51:34;;;;;;;4.60;4.20;;;;;;;4.45;86.95;97128.88;5044084;28;20200;-56
2023/04/03 05:54:07;;;;;;;5.03;4.63;;;;;;;4.41;87.65;97132.59;5044442;28;20640;-57
2023/04/03 05:56:34;;;;;;;5.03;4.63;;;;;;;4.45;88.12;97136.72;5044354;28;20242;-57
2023/04/03 05:59:00;;;;;;;4.53;4.20;;;;;;;4.45;86.32;97134.94;5044618;28;20203;-56
2023/04/03 06:01:27;;;;;;;5.03;4.63;;;;;;;4.41;84.20;97137.84;5044307;28;20199;-55
2023/04/03 06:03:53;;;;;;;4.70;4.30;;;;;;;4.41;84.28;97135.22;5044133;28;20215;-57
2023/04/03 06:06:22;;;;;;;4.60;4.20;;;;;;;4.30;82.60;97146.34;5044937;28;20206;-56
2023/04/03 06:08:48;;;;;;;4.70;4.30;;;;;;;4.37;81.85;97139.81;5045359;28;20293;-57
2023/04/03 06:11:14;;;;;;;5.60;4.80;;;;;;;4.26;82.39;97144.84;5043479;28;20506;-56
2023/04/03 06:13:41;;;;;;;4.40;4.10;;;;;;;4.34;83.41;97141.75;5043880;28;20202;-57
2023/04/03 06:16:09;;;;;;;4.57;4.27;;;;;;;4.34;83.49;97142.63;5044385;28;20541;-56
2023/04/03 06:18:35;;;;;;;4.93;4.43;;;;;;;4.50;84.69;97145.13;5044909;28;20199;-56
2023/04/03 06:21:02;;;;;;;4.73;4.33;;;;;;;4.53;84.22;97147.59;5043840;28;20218;-57
2023/04/03 06:23:30;;;;;;;4.57;3.93;;;;;;;4.50;84.02;97148.59;5043783;28;20235;-56
2023/04/03 06:25:56;;;;;;;4.43;4.03;;;;;;;4.56;82.00;97157.88;5043362;28;20218;-56
2023/04/03 06:28:23;;;;;;;5.10;4.60;;;;;;;4.63;83.26;97153.09;5043594;28;20203;-57
2023/04/03 06:30:49;;;;;;;4.47;4.17;;;;;;;4.66;83.89;97153.75;5043237;28;20203;-56
2023/04/03 06:33:16;;;;;;;4.53;4.10;;;;;;;4.61;81.15;97149.69;5043522;28;20208;-57
2023/04/03 06:35:43;;;;;;;4.30;3.90;;;;;;;4.53;81.79;97148.41;5044244;28;20239;-57
2023/04/03 06:38:11;;;;;;;4.10;3.80;;;;;;;4.60;82.25;97154.13;5045503;28;20246;-56
2023/04/03 06:40:38;;;;;;;4.60;4.20;;;;;;;4.66;82.88;97152.91;5043535;28;20195;-56
2023/04/03 06:43:05;;;;;;;4.60;4.20;;;;;;;4.62;80.18;97152.25;5044165;28;20631;-55
2023/04/03 06:45:32;;;;;;;4.37;4.07;;;;;;;4.75;79.63;97147.91;5044757;28;20234;-57
2023/04/03 06:47:58;;;;;;;4.23;3.93;;;;;;;4.54;77.87;97149.25;5044246;28;20200;-56
2023/04/03 06:50:25;;;;;;;4.33;3.93;;;;;;;4.69;83.20;97153.53;5043748;28;20203;-55
2023/04/03 06:52:52;;;;;;;4.20;3.90;;;;;;;4.88;85.61;97148.84;5043056;28;20222;-57
2023/04/03 06:55:18;;;;;;;4.40;4.00;;;;;;;4.97;82.04;97156.13;5044015;28;20208;-56
2023/04/03 06:57:47;;;;;;;5.03;4.57;;;;;;;4.76;78.94;97160.09;5043898;28;20231;-58
2023/04/03 07:00:16;;;;;;;4.20;3.80;;;;;;;4.71;77.87;97151.66;5043670;28;20258;-58
2023/04/03 07:02:42;;;;;;;4.30;4.00;;;;;;;4.80;79.11;97156.34;5045336;28;20281;-57
2023/04/03 07:05:10;;;;;;;4.00;3.70;;;;;;;4.68;77.75;97156.25;5043228;28;21077;-58
2023/04/03 07:07:37;;;;;;;4.30;3.90;;;;;;;4.64;79.08;97155.59;5044595;28;20218;-57
2023/04/03 07:10:05;;;;;;;3.70;3.50;;;;;;;4.75;78.85;97153.16;5044482;28;20211;-58
2023/04/03 07:12:31;;;;;;;3.80;3.50;;;;;;;4.76;77.85;97149.59;5042530;28;20222;-59
2023/04/03 07:15:02;;;;;;;4.23;3.73;;;;;;;4.87;77.94;97151.56;5043017;28;20218;-58
2023/04/03 07:17:29;;;;;;;4.07;3.37;;;;;;;4.73;76.08;97155.03;5042197;28;20242;-57
2023/04/03 07:19:55;;;;;;;3.83;3.53;;;;;;;4.71;75.25;97162.13;5045333;28;20238;-58
2023/04/03 07:22:22;;;;;;;4.70;3.67;;;;;;;4.82;75.66;97158.84;5043531;28;20207;-58
2023/04/03 07:24:48;;;;;;;3.50;3.30;;;;;;;4.79;76.04;97157.28;5043996;28;20234;-58
2023/04/03 07:27:15;;;;;;;3.47;3.27;;;;;;;4.69;75.39;97164.03;5042621;28;20207;-57
2023/04/03 07:29:42;;;;;;;3.73;3.30;;;;;;;4.65;74.65;97167.75;5043317;28;20210;-57
2023/04/03 07:32:11;;;;;;;6.00;3.40;;;;;;;4.66;76.67;97166.84;5043864;28;20211;-57
2023/04/03 07:34:38;;;;;;;3.43;3.07;;;;;;;4.76;75.32;97170.56;5043157;28;20206;-58
2023/04/03 07:37:06;;;;;;;3.80;3.50;;;;;;;4.60;75.88;97163.75;5042839;28;20219;-56
2023/04/03 07:39:33;;;;;;;3.57;3.37;;;;;;;4.62;76.65;97167.13;5042983;28;20210;-58
2023/04/03 07:42:00;;;;;;;4.97;3.20;;;;;;;4.53;76.02;97164.09;5042399;28;20261;-58
2023/04/03 07:44:27;;;;;;;3.83;3.63;;;;;;;4.58;76.98;97170.84;5041945;28;20261;-57
2023/04/03 07:46:54;;;;;;;4.00;3.70;;;;;;;4.60;77.66;97172.47;5043778;28;20196;-57
2023/04/03 07:49:24;;;;;;;3.40;3.20;;;;;;;4.48;75.83;97168.81;5042424;28;20585;-58
2023/04/03 07:51:51;;;;;;;3.27;3.00;;;;;;;4.62;76.57;97167.97;5042904;28;20532;-58
2023/04/03 07:54:17;;;;;;;3.67;3.43;;;;;;;4.70;76.46;97157.84;5042298;28;20583;-57
2023/04/03 07:56:44;;;;;;;3.57;3.23;;;;;;;4.91;78.75;97161.75;5041716;28;20631;-58
2023/04/03 07:59:11;;;;;;;3.87;3.67;;;;;;;5.05;77.81;97166.13;5054025;28;20207;-57
2023/04/03 08:01:38;;;;;;;3.70;3.40;;;;;;;5.30;76.60;97157.56;5053480;28;20230;-57
2023/04/03 08:04:05;;;;;;;3.97;3.50;;;;;;;5.38;75.71;97155.28;5046293;28;20203;-56
2023/04/03 08:06:35;;;;;;;4.57;3.20;;;;;;;5.43;74.24;97161.91;5043727;28;20270;-59
2023/04/03 08:09:03;;;;;;;3.97;3.30;;;;;;;5.53;74.71;97156.09;5043462;28;20209;-59
2023/04/03 08:11:30;;;;;;;4.93;3.57;;;;;;;5.55;75.35;97165.53;5043646;28;20211;-56
2023/04/03 08:13:58;;;;;;;4.80;3.13;;;;;;;5.58;73.65;97162.69;5042648;28;20203;-57
2023/04/03 08:16:26;;;;;;;3.20;3.00;;;;;;;5.67;73.19;97158.66;5044694;28;20648;-58
2023/04/03 08:18:54;;;;;;;3.17;2.87;;;;;;;5.69;72.91;97162.84;5042168;28;20219;-58
2023/04/03 08:21:21;;;;;;;3.10;2.90;;;;;;;5.62;73.19;97156.31;5042931;28;20204;-58
2023/04/03 08:23:50;;;;;;;5.27;3.20;;;;;;;5.71;75.83;97160.94;5043187;28;20847;-57
2023/04/03 08:26:20;;;;;;;3.63;3.10;;;;;;;5.74;73.88;97158.13;5043034;28;20232;-57
2023/04/03 08:28:46;;;;;;;3.50;3.20;;;;;;;5.80;73.48;97159.53;5042734;28;20214;-57
2023/04/03 08:31:18;;;;;;;3.30;3.00;;;;;;;5.57;71.94;97158.38;5043581;28;20218;-57
2023/04/03 08:33:45;;;;;;;4.13;2.90;;;;;;;5.72;72.54;97151.31;5042132;28;20210;-58
2023/04/03 08:36:18;;;;;;;5.23;3.40;;;;;;;5.81;74.08;97156.78;5044690;28;20210;-58
2023/04/03 08:38:45;;;;;;;3.33;3.13;;;;;;;5.72;71.89;97165.28;5046492;28;20207;-58
2023/04/03 08:41:16;;;;;;;3.43;3.23;;;;;;;5.83;71.64;97160.16;5043374;28;20210;-58
2023/04/03 08:43:59;;;;;;;2.90;2.70;;;;;;;5.63;71.17;97165.88;5041641;28;20277;-58
2023/04/03 08:46:49;;;;;;;2.77;2.63;;;;;;;5.48;71.64;97169.50;5041507;28;20192;-57
2023/04/03 08:49:21;;;;;;;3.37;2.97;;;;;;;5.44;71.84;97157.50;5046952;28;20200;-57
2023/04/03 08:51:50;;;;;;;5.87;3.27;;;;;;;5.52;72.57;97163.13;5041445;28;20200;-58
2023/04/03 08:54:24;;;;;;;3.17;2.87;;;;;;;5.58;72.04;97160.09;5041795;28;20552;-57
2023/04/03 08:56:52;;;;;;;3.50;3.20;;;;;;;5.74;73.29;97165.19;5046386;28;20199;-56
2023/04/03 08:59:27;;;;;;;4.53;3.30;;;;;;;5.86;72.09;97156.50;5045001;28;20636;-57
2023/04/03 09:01:55;;;;;;;3.20;2.97;;;;;;;5.73;69.90;97174.84;5046427;28;20202;-57
2023/04/03 09:04:21;;;;;;;3.33;2.90;;;;;;;5.79;70.72;97161.28;5045746;28;21074;-56
2023/04/03 09:06:51;;;;;;;3.57;3.27;;;;;;;5.79;70.44;97174.41;5045424;28;20848;-57
2023/04/03 09:09:29;;;;;;;3.20;3.00;;;;;;;5.70;70.37;97172.41;5044845;28;20199;-57
2023/04/03 09:12:01;;;;;;;3.50;3.20;;;;;;;5.70;70.70;97175.03;5046393;28;20211;-57
2023/04/03 09:14:35;;;;;;;3.17;2.83;;;;;;;5.68;70.87;97169.03;5045461;28;20207;-57
2023/04/03 09:17:04;;;;;;;3.50;3.20;;;;;;;5.74;72.20;97163.38;5044586;28;20208;-57
2023/04/03 09:19:37;;;;;;;3.37;3.10;;;;;;;5.70;71.13;97164.53;5044581;28;20284;-57
2023/04/03 09:22:10;;;;;;;3.10;2.90;;;;;;;5.78;71.62;97159.59;5045032;28;20200;-57
2023/04/03 09:24:38;;;;;;;2.80;2.60;;;;;;;5.94;72.73;97159.47;5045841;28;20197;-58
2023/04/03 09:27:08;;;;;;;3.43;3.13;;;;;;;5.94;72.10;97165.56;5045190;28;20637;-57
2023/04/03 09:29:39;;;;;;;3.13;2.93;;;;;;;6.08;72.25;97174.31;5044069;28;20199;-58
2023/04/03 09:32:19;;;;;;;3.30;3.00;;;;;;;5.91;71.09;97162.31;5044995;28;20196;-57
2023/04/03 09:34:47;;;;;;;3.50;3.20;;;;;;;5.84;70.59;97171.50;5044431;28;20203;-57
2023/04/03 09:37:35;;;;;;;3.30;3.10;;;;;;;5.95;71.83;97169.03;5044362;28;20204;-57
2023/04/03 09:40:02;;;;;;;2.90;2.70;;;;;;;6.22;71.77;97163.72;5044188;28;20204;-57
2023/04/03 09:42:31;;;;;;;3.10;2.90;;;;;;;6.24;71.73;97167.06;5044771;28;20223;-57
2023/04/03 09:44:59;;;;;;;3.73;3.20;;;;;;;6.33;70.28;97163.84;5044979;28;20232;-57
2023/04/03 09:47:28;;;;;;;3.53;3.13;;;;;;;6.43;70.66;97164.88;5044149;28;20203;-57
2023/04/03 09:50:12;;;;;;;3.80;3.23;;;;;;;6.51;71.68;97165.22;5045538;28;20203;-58
2023/04/03 09:52:40;;;;;;;4.10;3.23;;;;;;;6.29;69.96;97168.44;5046386;28;20557;-56
2023/04/03 09:55:08;;;;;;;3.40;3.10;;;;;;;6.38;70.60;97167.81;5045424;28;20206;-59
2023/04/03 09:57:36;;;;;;;3.43;3.13;;;;;;;6.26;70.69;97176.53;5043902;28;20314;-57
2023/04/03 10:00:05;;;;;;;3.50;3.20;;;;;;;6.29;71.50;97170.22;5043445;28;20199;-58
2023/04/03 10:02:36;;;;;;;3.33;3.03;;;;;;;6.33;70.54;97174.34;5043653;28;20210;-58
2023/04/03 10:05:03;;;;;;;4.27;3.07;;;;;;;6.24;70.64;97173.16;5043985;28;20204;-58
2023/04/03 10:07:33;;;;;;;3.70;3.10;;;;;;;6.41;70.82;97182.53;5043528;28;20262;-56
2023/04/03 10:10:01;;;;;;;3.10;2.90;;;;;;;6.64;70.69;97167.81;5043279;28;20295;-57
2023/04/03 10:12:27;;;;;;;3.40;3.13;;;;;;;6.73;69.41;97173.28;5043305;28;20215;-57
2023/04/03 10:15:01;;;;;;;3.20;3.00;;;;;;;6.72;68.76;97170.75;5043443;28;20214;-58
2023/04/03 10:17:36;;;;;;;3.50;3.20;;;;;;;6.73;69.53;97173.28;5042575;28;20782;-57
2023/04/03 10:20:11;;;;;;;3.50;3.20;;;;;;;6.61;68.40;97171.50;5042649;28;20695;-58
2023/04/03 10:22:43;;;;;;;4.17;2.83;;;;;;;6.81;69.32;97170.09;5043249;28;20531;-56
2023/04/03 10:25:15;;;;;;;4.83;3.20;;;;;;;6.93;70.79;97172.75;5049251;28;20236;-57
2023/04/03 10:27:48;;;;;;;3.40;3.20;;;;;;;6.88;68.25;97171.34;5054946;28;20203;-56
2023/04/03 10:30:26;;;;;;;3.47;3.23;;;;;;;6.74;69.00;97174.97;5048040;28;20192;-57
2023/04/03 10:32:59;;;;;;;3.17;2.97;;;;;;;6.83;69.27;97166.44;5045704;28;20203;-58
2023/04/03 10:35:35;;;;;;;3.23;3.03;;;;;;;7.21;78.82;97163.72;5043860;28;20204;-57
2023/04/03 10:38:06;;;;;;;3.23;2.90;;;;;;;7.08;69.33;97162.09;5044163;28;20258;-57
2023/04/03 10:40:38;;;;;;;2.90;2.70;;;;;;;7.14;70.34;97166.91;5043540;28;20204;-58
2023/04/03 10:43:09;;;;;;;3.40;3.10;;;;;;;7.11;69.76;97157.44;5044234;28;20210;-57
2023/04/03 10:45:52;;;;;;;2.70;2.60;;;;;;;6.86;67.73;97160.97;5049737;28;20200;-57
2023/04/03 10:48:28;;;;;;;3.30;2.80;;;;;;;6.93;68.56;97159.59;5063362;28;20210;-57
2023/04/03 10:50:59;;;;;;;3.10;2.90;;;;;;;6.89;69.00;97158.13;5063674;28;20195;-58
2023/04/03 10:53:32;;;;;;;3.30;3.00;;;;;;;6.65;68.67;97159.00;5062183;28;20216;-56
2023/04/03 10:56:04;;;;;;;3.17;2.83;;;;;;;6.55;69.16;97157.97;5066972;28;20198;-55
2023/04/03 10:58:33;;;;;;;3.17;2.97;;;;;;;6.47;69.60;97148.81;5065011;28;20223;-56
2023/04/03 11:01:06;;;;;;;3.10;2.90;;;;;;;6.53;70.90;97155.41;5065473;28;20200;-56
2023/04/03 11:03:35;;;;;;;3.20;2.90;;;;;;;6.36;71.99;97145.22;5066162;28;20439;-55
2023/04/03 11:06:03;;;;;;;3.10;2.90;;;;;;;6.46;71.10;97146.28;5065008;28;20203;-55
2023/04/03 11:08:34;;;;;;;3.03;2.83;;;;;;;6.51;70.68;97144.19;5048809;28;20633;-57
2023/04/03 11:11:02;;;;;;;3.03;2.83;;;;;;;6.57;71.59;97137.66;5043598;28;20261;-56
2023/04/03 11:13:32;;;;;;;3.20;3.00;;;;;;;6.57;71.93;97145.53;5043309;28;20635;-56
2023/04/03 11:15:59;;;;;;;4.40;3.13;;;;;;;6.57;70.88;97151.63;5043221;28;20524;-56
2023/04/03 11:18:33;;;;;;;4.33;3.20;;;;;;;6.70;71.65;97149.81;5041830;28;20246;-57
2023/04/03 11:21:04;;;;;;;3.37;3.13;;;;;;;6.89;71.60;97142.34;5041820;28;20238;-57
2023/04/03 11:23:33;;;;;;;3.30;3.10;;;;;;;6.97;72.78;97142.66;5042851;28;20264;-57
2023/04/03 11:26:09;;;;;;;3.20;3.00;;;;;;;6.98;71.61;97139.06;5044018;28;20203;-56
2023/04/03 11:28:36;;;;;;;7.03;3.43;;;;;;;6.99;71.82;97140.75;5042349;28;20205;-57
2023/04/03 11:31:14;;;;;;;3.13;2.90;;;;;;;7.10;72.11;97133.88;5041910;28;20628;-60
2023/04/03 11:33:49;;;;;;;3.77;3.10;;;;;;;6.85;71.72;97130.38;5042112;28;20199;-56
2023/04/03 11:36:22;;;;;;;3.43;3.23;;;;;;;6.62;72.71;97139.03;5043685;28;20581;-57
2023/04/03 11:38:51;;;;;;;3.23;3.03;;;;;;;6.54;73.91;97130.84;5042018;28;20651;-56
2023/04/03 11:41:18;;;;;;;4.13;3.20;;;;;;;6.58;73.57;97134.09;5042775;28;20285;-55
2023/04/03 11:43:58;;;;;;;4.03;3.67;;;;;;;6.64;74.14;97131.88;5042581;28;20234;-57
2023/04/03 11:46:52;;;;;;;3.60;3.30;;;;;;;6.82;74.14;97127.97;5043302;28;20219;-56